メインページ
METAR-TAF:

METAR-TAF

空港 :

ベルリン, ドイツ

ベルリン・テーゲル空港

緯度: 52-34N, 経度: 013-19E, 海抜: 37m

現時点の気象観測

当レポートは15分前の04:50(UTC)に作成
の風 3kt
気温 11°C
湿度 82%
気圧 1014 hPa
視程10km以上
高度4500ftの雲はほとんどない
高度6000ftの千切れ雲あり

METAR: EDDT 210450Z 17003KT 9999 FEW045 BKN060 11/08 Q1014 NOSIG

時間: 07:05 (05:05 UTC)

予報

当レポートは6時間5分前の23:00(UTC)に作成
予報は21日の 00時(UTC)から 21日の 24時(UTC)まで有効
南/南西の風 6kt
視程10km以上
高度3500ftの雲はほとんどない
21日の 13時(UTC)から 21日の 15時(UTC)まで徐々に
南東の風 6kt
21日の 21時(UTC)から 21日の 24時(UTC)まで徐々に
高度1200ftの千切れ雲あり
21日の 21時(UTC)から 21日の 23時(UTC)まで一時的に

TAF: EDDT 202300Z 2100/2124 21006KT 9999 FEW035 BECMG 2113/2115 14006KT BECMG 2121/2124 BKN012 TEMPO 2121/2123 RA

4,000以上の空港の気象観測と天気予報(METAR報とTAF報)

利用可能な観測所は地図上に黄色い丸と赤い丸で示す。

丸の上にカーソルを重ねると観測所名を参照できる。

次にクリックすると気象観測と天気予報を参照できる。

マップの切り替え:黒色「×」印の緑ボタンをクリックして拡大、「-」印の緑ボタンをクリックして縮小、緑色の三角印をクリックして隣りの地図に切り替え


METAR-TAF: